Aérodrome :
LOGIN :

S'inscrire | Disclaimer

   EN    FR    IT 

 










Légende :    VFR   VFR Marginal   IFR   IFR Intensif   IFR Très Intensif
Visi : 
Plafond : 
>= 8 km
>= 3000ft
5 à 8 km
1000 à 3000 ft
1500m à 5 km
500 à 1000 ft
800 à 1500m
200 à 500 ft
< 800m
< 200 ft
Symboles :   Orages  Brouillard  Fortes neiges  Fortes précipitations  Vent > 20 kt
SIGMETs :   Divers  Orages  Givrage  Turbulence  Onde Orograph.  Cendres Volcan.







- Altitude de l'aérodrome : 42 ft
- Code IATA : KGD


UMKK - Khrabrava - Kaliningrad

DERNIER METAR :
  • 162000Z 22007MPS 9999 -RA BKN009 OVC021 05/03 Q0998 R24/29//50 NOSIG RMK QFE747/0996

METARs EXPIRÉS :
  • 161930Z 22006MPS 9999 OVC021 04/03 Q0998 R24/29//50 NOSIG RMK QFE747/0996
  • 161900Z 22006MPS 9999 SCT009 OVC021 04/03 Q0998 R24/29//50 NOSIG RMK QFE747/0997
  • 161830Z 22006MPS 9000 -RA BKN007 OVC019 04/03 Q0998 R24/29//50 NOSIG RMK QFE747/0997
  • 161800Z 22006MPS 9000 -RA OVC019 04/03 Q0998 R24/29//46 NOSIG RMK QFE747/0997
  • 161730Z 22005MPS 9999 -RA SCT006 OVC021 04/03 Q0998 R24/29//46 NOSIG RMK QBB180 OBST OBSC QFE748/0997
  • 161700Z 21004MPS 8000 -RA BKN006 OVC019 03/03 Q0999 R24/29//46 NOSIG RMK QBB180 OBST OBSC QFE748/0997

TAF TAF UMKK
Valide du 16 à 18h jusqu'au 17 à 18h UTC


161703Z 1618/1718 22006G13MPS 3100 -RA BR BKN006
TEMPO 1618/1621 BKN003
BECMG 1621/1623 BKN010
TEMPO 1700/1709 24008G15MPS -RA BKN006
FM170900 25007G12MPS 9999 SCT011



MET'MAP, la Météo Aéronautique d'un coup d'oeil ! - Copyright ORBIFLY Décembre 2007 - Disclaimer

ORBIFLY MET'MAP TEAM :

Programmation & Développement : Alexandra Zaïnal
Conception & Développement : Baudouin d'Aumeries
Co-Programmation & Développement : Marc-Olivier Méhu
Soutien technique & logistique : Manuel Goepfert

Contact : metmap@orbifly.com




SOURCES & CREDITS :

   NOAA